DEOOG EDMO-EDMO
Flight info
| Callsign | DEOOG |
|---|---|
| Flight time | N/A |
| Altitude | 4500 |
| Route | DCT |
| Aircraft | C172/L-VGD/A |
Departure
| Time | 2026-04-13 15:02 |
|---|---|
| Airport | Oberpfaffenhofen Airport (EDMO) |
Arrival
| Time | N/A |
|---|---|
| Airport | Oberpfaffenhofen Airport (EDMO) |
| Time | Latitude | Longitude | Altitude | Speed | Heading |
|---|---|---|---|---|---|
| 2026-04-13 14:50 | 48.08342 | 11.29312 | 1906 ft | 0 kts | 110° |
| 2026-04-13 14:56 | 48.08341 | 11.29312 | 1906 ft | 0 kts | 110° |
| 2026-04-13 14:57 | 48.08340 | 11.29327 | 1906 ft | 0 kts | 76° |
| 2026-04-13 14:57 | 48.08346 | 11.29340 | 1906 ft | 3 kts | 53° |
| 2026-04-13 14:57 | 48.08365 | 11.29374 | 1906 ft | 6 kts | 11° |
| 2026-04-13 14:58 | 48.08490 | 11.29361 | 1903 ft | 9 kts | 355° |
| 2026-04-13 14:58 | 48.08558 | 11.29352 | 1901 ft | 9 kts | 354° |
| 2026-04-13 14:58 | 48.08595 | 11.29348 | 1899 ft | 0 kts | 354° |
| 2026-04-13 14:59 | 48.08610 | 11.29346 | 1898 ft | 5 kts | 354° |
| 2026-04-13 15:00 | 48.08668 | 11.29338 | 1896 ft | 10 kts | 354° |
| 2026-04-13 15:00 | 48.08753 | 11.29327 | 1895 ft | 12 kts | 354° |
| 2026-04-13 15:00 | 48.08836 | 11.29302 | 1893 ft | 8 kts | 329° |
| 2026-04-13 15:00 | 48.08846 | 11.29278 | 1892 ft | 2 kts | 255° |
| 2026-04-13 15:01 | 48.08803 | 11.29217 | 1894 ft | 29 kts | 221° |
| 2026-04-13 15:01 | 48.08517 | 11.28830 | 1922 ft | 68 kts | 221° |
| 2026-04-13 15:01 | 48.08149 | 11.28322 | 2059 ft | 74 kts | 222° |
| 2026-04-13 15:01 | 48.07737 | 11.27761 | 2177 ft | 84 kts | 222° |
| 2026-04-13 15:02 | 48.07274 | 11.27156 | 2323 ft | 89 kts | 220° |
| 2026-04-13 15:02 | 48.06720 | 11.27218 | 2508 ft | 91 kts | 126° |
| 2026-04-13 15:02 | 48.06359 | 11.28081 | 2611 ft | 99 kts | 117° |
| 2026-04-13 15:02 | 48.06056 | 11.29041 | 2752 ft | 100 kts | 109° |
| 2026-04-13 15:03 | 48.05823 | 11.30007 | 2950 ft | 97 kts | 104° |
| 2026-04-13 15:03 | 48.05600 | 11.31004 | 3059 ft | 103 kts | 109° |
| 2026-04-13 15:03 | 48.05322 | 11.32019 | 3150 ft | 109 kts | 109° |
| 2026-04-13 15:03 | 48.05025 | 11.33140 | 3277 ft | 109 kts | 108° |
| 2026-04-13 15:04 | 48.04753 | 11.34199 | 3415 ft | 107 kts | 107° |
| 2026-04-13 15:04 | 48.04478 | 11.35275 | 3461 ft | 113 kts | 108° |
| 2026-04-13 15:04 | 48.04156 | 11.36399 | 3435 ft | 121 kts | 116° |
| 2026-04-13 15:04 | 48.03703 | 11.37485 | 3384 ft | 127 kts | 122° |
| 2026-04-13 15:05 | 48.03229 | 11.38507 | 3276 ft | 111 kts | 123° |
| 2026-04-13 15:05 | 48.02819 | 11.39379 | 3258 ft | 93 kts | 123° |
| 2026-04-13 15:05 | 48.02442 | 11.40179 | 3113 ft | 95 kts | 123° |
| 2026-04-13 15:05 | 48.02171 | 11.41057 | 2991 ft | 92 kts | 90° |
| 2026-04-13 15:06 | 48.02316 | 11.41993 | 2980 ft | 95 kts | 63° |
| 2026-04-13 15:06 | 48.02579 | 11.42910 | 2980 ft | 97 kts | 62° |
| 2026-04-13 15:06 | 48.02859 | 11.43846 | 2985 ft | 104 kts | 61° |
| 2026-04-13 15:06 | 48.03164 | 11.44847 | 3060 ft | 106 kts | 60° |
| 2026-04-13 15:07 | 48.03500 | 11.45822 | 3181 ft | 104 kts | 57° |
| 2026-04-13 15:07 | 48.03833 | 11.46760 | 3301 ft | 102 kts | 57° |
| 2026-04-13 15:07 | 48.04169 | 11.47695 | 3424 ft | 101 kts | 57° |
| 2026-04-13 15:07 | 48.04517 | 11.48638 | 3462 ft | 107 kts | 57° |
| 2026-04-13 15:08 | 48.04890 | 11.49636 | 3466 ft | 113 kts | 58° |
| 2026-04-13 15:08 | 48.05281 | 11.50685 | 3466 ft | 116 kts | 58° |
| 2026-04-13 15:08 | 48.05675 | 11.51741 | 3464 ft | 117 kts | 58° |
| 2026-04-13 15:08 | 48.06072 | 11.52810 | 3464 ft | 118 kts | 58° |
| 2026-04-13 15:09 | 48.06466 | 11.53877 | 3462 ft | 118 kts | 58° |
| 2026-04-13 15:09 | 48.06866 | 11.54935 | 3464 ft | 118 kts | 56° |
| 2026-04-13 15:09 | 48.07275 | 11.56005 | 3462 ft | 118 kts | 57° |
| 2026-04-13 15:09 | 48.07679 | 11.57060 | 3461 ft | 117 kts | 56° |
| 2026-04-13 15:10 | 48.08083 | 11.58119 | 3463 ft | 117 kts | 57° |
| 2026-04-13 15:10 | 48.08490 | 11.59181 | 3460 ft | 117 kts | 57° |
| 2026-04-13 15:10 | 48.08900 | 11.60242 | 3462 ft | 117 kts | 57° |
| 2026-04-13 15:10 | 48.09310 | 11.61297 | 3461 ft | 117 kts | 57° |
| 2026-04-13 15:11 | 48.09722 | 11.62360 | 3462 ft | 117 kts | 57° |
| 2026-04-13 15:11 | 48.10133 | 11.63414 | 3462 ft | 117 kts | 57° |
| 2026-04-13 15:11 | 48.10544 | 11.64471 | 3463 ft | 117 kts | 57° |
| 2026-04-13 15:11 | 48.10956 | 11.65528 | 3462 ft | 117 kts | 57° |
| 2026-04-13 15:12 | 48.11366 | 11.66584 | 3462 ft | 117 kts | 57° |
| 2026-04-13 15:12 | 48.11792 | 11.67626 | 3460 ft | 116 kts | 54° |
| 2026-04-13 15:12 | 48.12239 | 11.68620 | 3457 ft | 116 kts | 52° |
| 2026-04-13 15:12 | 48.12690 | 11.69617 | 3454 ft | 116 kts | 53° |
| 2026-04-13 15:13 | 48.13143 | 11.70618 | 3454 ft | 116 kts | 53° |
| 2026-04-13 15:13 | 48.13596 | 11.71622 | 3454 ft | 116 kts | 53° |
| 2026-04-13 15:13 | 48.14047 | 11.72622 | 3455 ft | 116 kts | 53° |
| 2026-04-13 15:13 | 48.14498 | 11.73627 | 3455 ft | 117 kts | 53° |
| 2026-04-13 15:14 | 48.14949 | 11.74631 | 3452 ft | 117 kts | 53° |
| 2026-04-13 15:14 | 48.15399 | 11.75636 | 3449 ft | 117 kts | 53° |
| 2026-04-13 15:14 | 48.15856 | 11.76652 | 3449 ft | 116 kts | 53° |
| 2026-04-13 15:14 | 48.16314 | 11.77643 | 3448 ft | 116 kts | 53° |
| 2026-04-13 15:15 | 48.16772 | 11.78637 | 3449 ft | 116 kts | 53° |
| 2026-04-13 15:15 | 48.17233 | 11.79645 | 3448 ft | 116 kts | 52° |
| 2026-04-13 15:15 | 48.17684 | 11.80636 | 3447 ft | 115 kts | 53° |
| 2026-04-13 15:15 | 48.18147 | 11.81628 | 3444 ft | 114 kts | 47° |
| 2026-04-13 15:16 | 48.18834 | 11.82131 | 3451 ft | 111 kts | 8° |
| 2026-04-13 15:16 | 48.19607 | 11.82249 | 3449 ft | 112 kts | 3° |
| 2026-04-13 15:16 | 48.20410 | 11.82265 | 3452 ft | 112 kts | 359° |
| 2026-04-13 15:16 | 48.21189 | 11.82257 | 3455 ft | 112 kts | 359° |
| 2026-04-13 15:17 | 48.21984 | 11.82249 | 3457 ft | 113 kts | 359° |
| 2026-04-13 15:17 | 48.22768 | 11.82241 | 3457 ft | 113 kts | 359° |
| 2026-04-13 15:17 | 48.23565 | 11.82236 | 3456 ft | 113 kts | 359° |
| 2026-04-13 15:17 | 48.24348 | 11.82233 | 3455 ft | 113 kts | 359° |
| 2026-04-13 15:18 | 48.25163 | 11.82229 | 3455 ft | 113 kts | 359° |
| 2026-04-13 15:18 | 48.25987 | 11.82219 | 3456 ft | 114 kts | 359° |
| 2026-04-13 15:18 | 48.26780 | 11.82206 | 3455 ft | 113 kts | 359° |
| 2026-04-13 15:18 | 48.27592 | 11.82183 | 3455 ft | 113 kts | 357° |
| 2026-04-13 15:19 | 48.28369 | 11.82074 | 3444 ft | 100 kts | 355° |
| 2026-04-13 15:19 | 48.29065 | 11.81906 | 3447 ft | 88 kts | 349° |
| 2026-04-13 15:19 | 48.29721 | 11.81710 | 3455 ft | 87 kts | 348° |
| 2026-04-13 15:19 | 48.30378 | 11.81513 | 3458 ft | 89 kts | 349° |
| 2026-04-13 15:20 | 48.31043 | 11.81315 | 3455 ft | 91 kts | 348° |
| 2026-04-13 15:20 | 48.31707 | 11.81121 | 3456 ft | 92 kts | 348° |
| 2026-04-13 15:20 | 48.32352 | 11.81114 | 3449 ft | 93 kts | 19° |
| 2026-04-13 15:20 | 48.32818 | 11.81768 | 3448 ft | 95 kts | 61° |
| 2026-04-13 15:21 | 48.32943 | 11.82779 | 3452 ft | 97 kts | 82° |
| 2026-04-13 15:21 | 48.32977 | 11.83840 | 3453 ft | 97 kts | 83° |
| 2026-04-13 15:21 | 48.33002 | 11.84895 | 3452 ft | 97 kts | 84° |
| 2026-04-13 15:21 | 48.33025 | 11.85970 | 3451 ft | 97 kts | 84° |
| 2026-04-13 15:22 | 48.33051 | 11.87046 | 3443 ft | 98 kts | 83° |
| 2026-04-13 15:22 | 48.33081 | 11.88202 | 3318 ft | 108 kts | 84° |
| 2026-04-13 15:22 | 48.33113 | 11.89387 | 3188 ft | 106 kts | 85° |
| 2026-04-13 15:22 | 48.33143 | 11.90557 | 3041 ft | 99 kts | 84° |
| 2026-04-13 15:23 | 48.33169 | 11.91597 | 2959 ft | 91 kts | 84° |
| 2026-04-13 15:23 | 48.33190 | 11.92499 | 2948 ft | 79 kts | 83° |
| 2026-04-13 15:23 | 48.33209 | 11.93392 | 2960 ft | 84 kts | 83° |
| 2026-04-13 15:23 | 48.33231 | 11.94339 | 2961 ft | 89 kts | 83° |
| 2026-04-13 15:24 | 48.33252 | 11.95303 | 2958 ft | 93 kts | 83° |
| 2026-04-13 15:24 | 48.33273 | 11.96295 | 2957 ft | 94 kts | 83° |
| 2026-04-13 15:24 | 48.33292 | 11.97319 | 2955 ft | 96 kts | 84° |
| 2026-04-13 15:24 | 48.33345 | 11.98347 | 2953 ft | 95 kts | 68° |
| 2026-04-13 15:25 | 48.33794 | 11.99060 | 2960 ft | 90 kts | 17° |
| 2026-04-13 15:25 | 48.34430 | 11.99038 | 2942 ft | 91 kts | 353° |
| 2026-04-13 15:25 | 48.35062 | 11.98922 | 2950 ft | 91 kts | 352° |
| 2026-04-13 15:25 | 48.35581 | 11.98427 | 2925 ft | 95 kts | 292° |
| 2026-04-13 15:26 | 48.35696 | 11.97388 | 2935 ft | 95 kts | 272° |
| 2026-04-13 15:26 | 48.35666 | 11.96325 | 2934 ft | 96 kts | 267° |
| 2026-04-13 15:26 | 48.35582 | 11.95289 | 2918 ft | 98 kts | 265° |
| 2026-04-13 15:26 | 48.35504 | 11.94236 | 2895 ft | 100 kts | 266° |
| 2026-04-13 15:27 | 48.35428 | 11.93186 | 2881 ft | 99 kts | 266° |
| 2026-04-13 15:27 | 48.35352 | 11.92142 | 2862 ft | 100 kts | 266° |
| 2026-04-13 15:27 | 48.35269 | 11.91034 | 2836 ft | 101 kts | 266° |
| 2026-04-13 15:27 | 48.35186 | 11.89870 | 2710 ft | 102 kts | 266° |
| 2026-04-13 15:28 | 48.35105 | 11.88744 | 2572 ft | 96 kts | 266° |
| 2026-04-13 15:28 | 48.35026 | 11.87665 | 2436 ft | 91 kts | 265° |
| 2026-04-13 15:28 | 48.34950 | 11.86664 | 2305 ft | 87 kts | 265° |
| 2026-04-13 15:28 | 48.34876 | 11.85689 | 2184 ft | 85 kts | 265° |
| 2026-04-13 15:29 | 48.34797 | 11.84769 | 2088 ft | 83 kts | 263° |
| 2026-04-13 15:29 | 48.34715 | 11.83773 | 2011 ft | 82 kts | 265° |
| 2026-04-13 15:29 | 48.34653 | 11.82860 | 1872 ft | 81 kts | 265° |
| 2026-04-13 15:29 | 48.34589 | 11.81952 | 1744 ft | 81 kts | 262° |
| 2026-04-13 15:30 | 48.34525 | 11.81077 | 1616 ft | 75 kts | 262° |
| 2026-04-13 15:30 | 48.34462 | 11.80248 | 1496 ft | 71 kts | 265° |
| 2026-04-13 15:30 | 48.34406 | 11.79527 | 1466 ft | 68 kts | 265° |
| 2026-04-13 15:30 | 48.34346 | 11.78753 | 1585 ft | 75 kts | 261° |
| 2026-04-13 15:31 | 48.34266 | 11.77904 | 1730 ft | 82 kts | 259° |
| 2026-04-13 15:31 | 48.34493 | 11.77116 | 1849 ft | 92 kts | 334° |
| 2026-04-13 15:31 | 48.34903 | 11.77151 | 1931 ft | 94 kts | 21° |